createdAt,value
2019-02-17T00:00:27.117Z,0.00
2019-02-17T00:01:27.144Z,0.00
2019-02-17T00:02:27.117Z,0.00
2019-02-17T00:03:27.164Z,0.00
2019-02-17T00:04:27.095Z,0.00
2019-02-17T00:05:27.194Z,0.00
2019-02-17T00:06:27.089Z,0.00
2019-02-17T00:07:27.057Z,0.00
2019-02-17T00:08:27.042Z,0.00
2019-02-17T00:09:27.116Z,0.00
2019-02-17T00:10:27.074Z,0.00
2019-02-17T00:11:27.205Z,0.00
2019-02-17T00:12:27.011Z,0.00
2019-02-17T00:13:26.991Z,0.00
2019-02-17T00:14:27.038Z,0.00
2019-02-17T00:15:27.053Z,0.00
2019-02-17T00:16:26.936Z,0.00
2019-02-17T00:17:27.053Z,0.00
2019-02-17T00:18:26.944Z,0.00
2019-02-17T00:19:26.965Z,0.00
2019-02-17T00:20:26.937Z,0.00
2019-02-17T00:21:26.977Z,0.00
2019-02-17T00:22:26.895Z,0.00
2019-02-17T00:23:26.990Z,0.00
2019-02-17T00:24:26.937Z,0.00
2019-02-17T00:25:26.878Z,0.00
2019-02-17T00:26:26.976Z,0.00
2019-02-17T00:27:26.840Z,0.00
2019-02-17T00:28:26.919Z,0.00
2019-02-17T00:29:26.873Z,0.00
2019-02-17T00:30:26.833Z,0.00
2019-02-17T00:31:26.800Z,0.00
2019-02-17T00:32:26.865Z,0.00
2019-02-17T00:33:26.798Z,0.00
2019-02-17T00:34:26.941Z,0.00
2019-02-17T00:35:26.777Z,0.00
2019-02-17T00:36:26.778Z,0.00
2019-02-17T00:37:26.738Z,0.00
2019-02-17T00:38:26.829Z,0.00
2019-02-17T00:39:26.743Z,0.00
2019-02-17T00:40:26.885Z,0.00
2019-02-17T00:41:26.747Z,0.00
2019-02-17T00:42:26.692Z,0.00
2019-02-17T00:43:26.695Z,0.00
2019-02-17T00:44:26.737Z,0.00
2019-02-17T00:45:26.673Z,0.00
2019-02-17T00:46:27.748Z,0.00
2019-02-17T00:47:26.654Z,0.00
2019-02-17T00:48:26.642Z,0.00
2019-02-17T00:49:26.811Z,0.00
2019-02-17T00:50:26.643Z,0.00
2019-02-17T00:51:26.673Z,0.00
2019-02-17T00:52:26.601Z,0.00
2019-02-17T00:53:26.681Z,0.00
2019-02-17T00:54:26.581Z,0.00
2019-02-17T00:55:26.595Z,0.00
2019-02-17T00:56:26.594Z,0.00
2019-02-17T00:57:26.639Z,0.00
2019-02-17T00:58:26.538Z,0.00
2019-02-17T00:59:26.628Z,0.00
2019-02-17T01:00:26.517Z,0.00
2019-02-17T01:01:27.620Z,0.00
2019-02-17T01:02:26.484Z,0.00
2019-02-17T01:03:26.543Z,0.00
2019-02-17T01:04:26.481Z,0.00
2019-02-17T01:05:26.574Z,0.00
2019-02-17T01:06:26.499Z,0.00
2019-02-17T01:07:26.566Z,0.00
2019-02-17T01:08:26.471Z,0.00
2019-02-17T01:09:26.488Z,0.00
2019-02-17T01:10:26.410Z,0.00
2019-02-17T01:11:26.456Z,0.00
2019-02-17T01:12:26.395Z,0.00
2019-02-17T01:13:26.511Z,0.00
2019-02-17T01:14:26.367Z,0.00
2019-02-17T01:15:26.419Z,0.00
2019-02-17T01:16:26.414Z,0.00
2019-02-17T01:17:26.328Z,0.00
2019-02-17T01:18:26.320Z,0.00
2019-02-17T01:19:26.441Z,0.00
2019-02-17T01:20:26.307Z,0.00
2019-02-17T01:21:26.437Z,0.00
2019-02-17T01:22:26.436Z,0.00
2019-02-17T01:23:26.273Z,0.00
2019-02-17T01:24:26.382Z,0.00
2019-02-17T01:25:26.261Z,0.00
2019-02-17T01:26:26.398Z,0.00
2019-02-17T01:27:26.228Z,0.00
2019-02-17T01:28:26.318Z,0.00
2019-02-17T01:29:26.231Z,0.00
2019-02-17T01:30:26.333Z,0.00
2019-02-17T01:31:26.244Z,0.00
2019-02-17T01:32:26.244Z,0.00
2019-02-17T01:33:26.189Z,0.00
2019-02-17T01:34:26.261Z,0.00
2019-02-17T01:35:26.162Z,0.00
2019-02-17T01:36:26.230Z,0.00
2019-02-17T01:37:26.146Z,0.00
2019-02-17T01:38:26.204Z,0.00
2019-02-17T01:39:26.103Z,0.00
2019-02-17T01:40:26.196Z,0.00
2019-02-17T01:41:26.138Z,0.00
2019-02-17T01:42:26.205Z,0.00
2019-02-17T01:43:26.091Z,0.00
2019-02-17T01:44:26.097Z,0.00
2019-02-17T01:45:26.037Z,0.00
2019-02-17T01:46:26.084Z,0.00
2019-02-17T01:47:26.021Z,0.00
2019-02-17T01:48:26.132Z,0.00
2019-02-17T01:49:26.014Z,0.00
2019-02-17T01:50:26.052Z,0.00
2019-02-17T01:51:26.024Z,0.00
2019-02-17T01:52:25.996Z,0.00
2019-02-17T01:53:25.954Z,0.00
2019-02-17T01:54:26.074Z,0.00
2019-02-17T01:55:25.956Z,0.00
2019-02-17T01:56:26.048Z,0.00
2019-02-17T01:57:25.930Z,0.00
2019-02-17T01:58:25.896Z,0.00
2019-02-17T01:59:30.690Z,0.00
2019-02-17T02:00:26.925Z,0.00
2019-02-17T02:01:25.935Z,0.00
2019-02-17T02:02:25.913Z,0.00
2019-02-17T02:03:25.902Z,0.00
2019-02-17T02:04:25.871Z,0.00
2019-02-17T02:05:25.935Z,0.00
2019-02-17T02:06:25.854Z,0.00
2019-02-17T02:07:25.860Z,0.00
2019-02-17T02:08:25.811Z,0.00
2019-02-17T02:09:25.877Z,0.00
2019-02-17T02:10:25.805Z,0.00
2019-02-17T02:11:25.929Z,0.00
2019-02-17T02:12:25.803Z,0.00
2019-02-17T02:13:25.798Z,0.00
2019-02-17T02:14:25.760Z,0.00
2019-02-17T02:15:25.733Z,0.00
2019-02-17T02:16:25.781Z,0.00
2019-02-17T02:17:25.808Z,0.00
2019-02-17T02:18:25.696Z,0.00
2019-02-17T02:19:25.741Z,0.00
2019-02-17T02:20:25.696Z,0.00
2019-02-17T02:21:25.713Z,0.00
2019-02-17T02:22:25.671Z,0.00
2019-02-17T02:23:25.761Z,0.00
2019-02-17T02:24:25.667Z,0.00
2019-02-17T02:25:26.693Z,0.00
2019-02-17T02:26:25.662Z,0.00
2019-02-17T02:27:25.623Z,0.00
2019-02-17T02:28:25.743Z,0.00
2019-02-17T02:29:25.597Z,0.00
2019-02-17T02:30:25.706Z,0.00
2019-02-17T02:31:25.603Z,0.00
2019-02-17T02:32:25.618Z,0.00
2019-02-17T02:33:25.540Z,0.00
2019-02-17T02:34:25.628Z,0.00
2019-02-17T02:35:25.539Z,0.00
2019-02-17T02:36:25.623Z,0.00
2019-02-17T02:37:25.515Z,0.00
2019-02-17T02:38:25.546Z,0.00
2019-02-17T02:39:25.485Z,0.00
2019-02-17T02:40:25.551Z,0.00
2019-02-17T02:41:34.290Z,0.00
2019-02-17T02:42:26.452Z,0.00
2019-02-17T02:43:25.471Z,0.00
2019-02-17T02:44:25.444Z,0.00
2019-02-17T02:45:25.490Z,0.00
2019-02-17T02:46:25.457Z,0.00
2019-02-17T02:47:25.462Z,0.00
2019-02-17T02:48:25.404Z,0.00
2019-02-17T02:49:25.426Z,0.00
2019-02-17T02:50:25.374Z,0.00
2019-02-17T02:51:25.545Z,0.00
2019-02-17T02:52:25.373Z,0.00
2019-02-17T02:53:25.560Z,0.00
2019-02-17T02:54:25.342Z,0.00
2019-02-17T02:55:25.465Z,0.00
2019-02-17T02:56:25.375Z,0.00
2019-02-17T02:57:25.520Z,0.00
2019-02-17T02:58:25.296Z,0.00
2019-02-17T02:59:26.529Z,0.00
2019-02-17T03:00:25.264Z,0.00
2019-02-17T03:01:25.390Z,0.00
2019-02-17T03:02:25.473Z,0.00
2019-02-17T03:03:25.276Z,0.00
2019-02-17T03:04:26.437Z,0.00
2019-02-17T03:05:25.226Z,0.00
2019-02-17T03:06:25.414Z,0.00
2019-02-17T03:07:25.225Z,0.00
2019-02-17T03:08:25.182Z,0.00
2019-02-17T03:09:25.188Z,0.00
2019-02-17T03:10:26.378Z,0.00
2019-02-17T03:11:25.907Z,0.00
2019-02-17T03:12:25.347Z,0.00
2019-02-17T03:13:25.145Z,0.00
2019-02-17T03:14:25.121Z,0.00
2019-02-17T03:15:25.100Z,0.00
2019-02-17T03:16:25.299Z,0.00
2019-02-17T03:17:25.133Z,0.00
2019-02-17T03:18:25.296Z,0.00
2019-02-17T03:19:25.067Z,0.00
2019-02-17T03:20:25.073Z,0.00
2019-02-17T03:21:25.061Z,0.00
2019-02-17T03:22:25.303Z,0.00
2019-02-17T03:23:25.043Z,0.00
2019-02-17T03:24:25.243Z,0.00
2019-02-17T03:25:25.022Z,0.00
2019-02-17T03:26:24.990Z,0.00
2019-02-17T03:27:25.210Z,0.00
2019-02-17T03:28:24.994Z,0.00
2019-02-17T03:29:26.097Z,0.00
2019-02-17T03:30:24.950Z,0.00
2019-02-17T03:31:27.138Z,0.00
2019-02-17T03:32:25.167Z,0.00
2019-02-17T03:33:24.996Z,0.00
2019-02-17T03:34:27.082Z,0.00
2019-02-17T03:35:24.911Z,0.00
2019-02-17T03:36:25.112Z,0.00
2019-02-17T03:37:25.068Z,0.00
2019-02-17T03:38:24.887Z,0.00
2019-02-17T03:39:24.875Z,0.00
2019-02-17T03:40:25.036Z,0.00
2019-02-17T03:41:24.884Z,0.00
2019-02-17T03:42:25.064Z,0.00
2019-02-17T03:43:24.883Z,0.00
2019-02-17T03:44:24.803Z,0.00
2019-02-17T03:45:24.839Z,0.00
2019-02-17T03:46:24.983Z,0.00
2019-02-17T03:47:24.775Z,0.00
2019-02-17T03:48:25.984Z,0.00
2019-02-17T03:49:24.872Z,0.00
2019-02-17T03:50:24.740Z,0.00
2019-02-17T03:51:24.755Z,0.00
2019-02-17T03:52:25.931Z,0.00
2019-02-17T03:53:24.751Z,0.00
2019-02-17T03:54:24.834Z,0.00
2019-02-17T03:55:24.716Z,0.00
2019-02-17T03:56:24.706Z,0.00
2019-02-17T03:57:24.844Z,0.00
2019-02-17T03:58:24.718Z,0.00
2019-02-17T03:59:24.864Z,0.00
2019-02-17T04:00:24.655Z,0.00
2019-02-17T04:01:25.815Z,0.00
2019-02-17T04:02:24.635Z,0.00
2019-02-17T04:03:24.832Z,0.00
2019-02-17T04:04:24.617Z,0.00
2019-02-17T04:05:24.798Z,0.00
2019-02-17T04:06:24.598Z,0.00
2019-02-17T04:07:24.720Z,0.00
2019-02-17T04:08:24.617Z,0.00
2019-02-17T04:09:26.805Z,0.00
2019-02-17T04:10:24.547Z,0.00
2019-02-17T04:11:24.856Z,0.00
2019-02-17T04:12:24.511Z,0.00
2019-02-17T04:13:24.710Z,0.00
2019-02-17T04:14:24.666Z,0.00
2019-02-17T04:15:24.499Z,0.00
2019-02-17T04:16:24.695Z,0.00
2019-02-17T04:17:24.463Z,0.00
2019-02-17T04:18:24.649Z,0.00
2019-02-17T04:19:24.461Z,0.00
2019-02-17T04:20:24.464Z,0.00
2019-02-17T04:21:24.633Z,0.00
2019-02-17T04:22:24.422Z,0.00
2019-02-17T04:23:31.308Z,0.00
2019-02-17T04:24:25.417Z,0.00
2019-02-17T04:25:24.534Z,0.00
2019-02-17T04:26:26.598Z,0.00
2019-02-17T04:27:24.420Z,0.00
2019-02-17T04:28:24.589Z,0.00
2019-02-17T04:29:24.355Z,0.00
2019-02-17T04:30:29.288Z,0.00
2019-02-17T04:31:25.335Z,0.00
2019-02-17T04:32:24.376Z,0.00
2019-02-17T04:33:24.299Z,0.00
2019-02-17T04:34:24.571Z,0.00
2019-02-17T04:35:24.305Z,0.00
2019-02-17T04:36:24.389Z,0.00
2019-02-17T04:37:24.281Z,0.00
2019-02-17T04:38:24.283Z,0.00
2019-02-17T04:39:24.486Z,0.00
2019-02-17T04:40:24.254Z,0.00
2019-02-17T04:41:24.425Z,0.00
2019-02-17T04:42:24.219Z,0.00
2019-02-17T04:43:24.347Z,0.00
2019-02-17T04:44:24.272Z,0.00
2019-02-17T04:45:24.347Z,0.00
2019-02-17T04:46:24.229Z,0.00
2019-02-17T04:47:24.369Z,0.00
2019-02-17T04:48:24.194Z,0.00
2019-02-17T04:49:24.318Z,0.00
2019-02-17T04:50:24.130Z,0.00
2019-02-17T04:51:24.313Z,0.00
2019-02-17T04:52:24.108Z,0.00
2019-02-17T04:53:24.310Z,0.00
2019-02-17T04:54:24.135Z,0.00
2019-02-17T04:55:24.218Z,0.00
2019-02-17T04:56:24.100Z,0.00
2019-02-17T04:57:24.295Z,0.00
2019-02-17T04:58:24.066Z,0.00
2019-02-17T04:59:24.240Z,0.00
2019-02-17T05:00:24.036Z,0.00
2019-02-17T05:01:24.164Z,0.00
2019-02-17T05:02:24.004Z,0.00
2019-02-17T05:03:24.155Z,0.00
2019-02-17T05:04:24.038Z,0.00
2019-02-17T05:05:24.178Z,0.00
2019-02-17T05:06:23.970Z,0.00
2019-02-17T05:07:24.100Z,0.00
2019-02-17T05:08:23.946Z,0.00
2019-02-17T05:09:24.197Z,0.00
2019-02-17T05:10:23.928Z,0.00
2019-02-17T05:11:24.125Z,0.00
2019-02-17T05:12:24.878Z,0.00
2019-02-17T05:13:24.034Z,0.00
2019-02-17T05:14:23.940Z,0.00
2019-02-17T05:15:24.048Z,0.00
2019-02-17T05:16:23.884Z,0.00
2019-02-17T05:17:24.067Z,0.00
2019-02-17T05:18:23.854Z,0.00
2019-02-17T05:19:24.026Z,0.00
2019-02-17T05:20:23.834Z,0.00
2019-02-17T05:21:23.966Z,0.00
2019-02-17T05:22:23.816Z,0.00
2019-02-17T05:23:23.988Z,0.00
2019-02-17T05:24:23.827Z,0.00
2019-02-17T05:25:23.895Z,0.00
2019-02-17T05:26:23.772Z,0.00
2019-02-17T05:27:23.906Z,0.00
2019-02-17T05:28:23.746Z,0.00
2019-02-17T05:29:23.884Z,0.00
2019-02-17T05:30:23.750Z,0.00
2019-02-17T05:31:23.835Z,0.00
2019-02-17T05:32:23.716Z,0.00
2019-02-17T05:33:23.865Z,0.00
2019-02-17T05:34:23.734Z,0.00
2019-02-17T05:35:23.866Z,0.00
2019-02-17T05:36:23.680Z,0.00
2019-02-17T05:37:23.687Z,0.00
2019-02-17T05:38:23.653Z,0.00
2019-02-17T05:39:23.871Z,0.00
2019-02-17T05:40:23.633Z,0.00
2019-02-17T05:41:23.816Z,0.00
2019-02-17T05:42:23.599Z,0.00
2019-02-17T05:43:23.586Z,0.00
2019-02-17T05:44:23.612Z,0.00
2019-02-17T05:45:23.730Z,0.00
2019-02-17T05:46:23.554Z,0.00
2019-02-17T05:47:23.762Z,0.00
2019-02-17T05:48:23.581Z,0.00
2019-02-17T05:49:23.536Z,0.00
2019-02-17T05:50:23.572Z,0.00
2019-02-17T05:51:23.653Z,0.00
2019-02-17T05:52:23.516Z,0.00
2019-02-17T05:53:23.680Z,0.00
2019-02-17T05:54:23.492Z,0.00
2019-02-17T05:55:23.493Z,0.00
2019-02-17T05:56:23.496Z,0.00
2019-02-17T05:57:23.592Z,0.00
2019-02-17T05:58:23.429Z,0.00
2019-02-17T05:59:23.634Z,0.00
2019-02-17T06:00:23.404Z,0.00
2019-02-17T06:01:23.423Z,0.00
2019-02-17T06:02:23.523Z,0.00
2019-02-17T06:03:23.391Z,0.00
2019-02-17T06:04:23.554Z,0.00
2019-02-17T06:05:23.393Z,0.00
2019-02-17T06:06:23.584Z,0.00
2019-02-17T06:07:23.459Z,0.00
2019-02-17T06:08:23.343Z,0.00
2019-02-17T06:09:23.469Z,0.00
2019-02-17T06:10:23.353Z,0.00
2019-02-17T06:11:23.486Z,0.00
2019-02-17T06:12:23.331Z,0.00
2019-02-17T06:13:23.273Z,0.00
2019-02-17T06:14:24.438Z,0.00
2019-02-17T06:15:23.301Z,0.00
2019-02-17T06:16:23.363Z,0.00
2019-02-17T06:17:23.235Z,0.00
2019-02-17T06:18:23.431Z,0.00
2019-02-17T06:19:23.241Z,0.00
2019-02-17T06:20:23.351Z,0.00
2019-02-17T06:21:23.215Z,0.00
2019-02-17T06:22:23.348Z,0.00
2019-02-17T06:23:23.165Z,0.00
2019-02-17T06:24:23.281Z,0.00
2019-02-17T06:25:23.182Z,0.00
2019-02-17T06:26:23.350Z,0.00
2019-02-17T06:27:23.172Z,0.00
2019-02-17T06:28:23.290Z,0.00
2019-02-17T06:29:23.137Z,0.00
2019-02-17T06:30:23.320Z,0.00
2019-02-17T06:31:23.155Z,0.00
2019-02-17T06:32:23.215Z,0.00
2019-02-17T06:33:23.106Z,0.00
2019-02-17T06:34:23.246Z,5.62
2019-02-17T06:35:23.072Z,5.62
2019-02-17T06:36:23.200Z,5.62
2019-02-17T06:37:23.037Z,5.62
2019-02-17T06:38:23.162Z,5.62
2019-02-17T06:39:22.998Z,5.62
2019-02-17T06:40:23.176Z,5.62
2019-02-17T06:41:23.043Z,5.62
2019-02-17T06:42:23.076Z,5.62
2019-02-17T06:43:22.970Z,5.62
2019-02-17T06:44:23.106Z,11.25
2019-02-17T06:45:22.973Z,11.25
2019-02-17T06:46:23.084Z,11.25
2019-02-17T06:47:22.963Z,11.25
2019-02-17T06:48:23.027Z,11.25
2019-02-17T06:49:22.923Z,11.25
2019-02-17T06:50:23.056Z,11.25
2019-02-17T06:51:22.962Z,16.88
2019-02-17T06:52:23.066Z,16.88
2019-02-17T06:53:22.878Z,16.88
2019-02-17T06:54:22.955Z,16.88
2019-02-17T06:55:22.901Z,16.88
2019-02-17T06:56:22.962Z,22.50
2019-02-17T06:57:22.866Z,22.50
2019-02-17T06:58:22.973Z,22.50
2019-02-17T06:59:22.810Z,22.50
2019-02-17T07:00:22.902Z,28.12
2019-02-17T07:01:24.921Z,28.12
2019-02-17T07:02:22.998Z,28.12
2019-02-17T07:03:22.767Z,28.12
2019-02-17T07:04:22.939Z,28.12
2019-02-17T07:05:22.751Z,33.75
2019-02-17T07:06:22.880Z,33.75
2019-02-17T07:07:22.757Z,33.75
2019-02-17T07:08:22.883Z,33.75
2019-02-17T07:09:22.728Z,39.38
2019-02-17T07:10:22.874Z,39.38
2019-02-17T07:11:23.453Z,39.38
2019-02-17T07:12:22.763Z,39.38
2019-02-17T07:13:22.724Z,45.00
2019-02-17T07:14:22.791Z,45.00
2019-02-17T07:15:22.658Z,45.00
2019-02-17T07:16:22.830Z,45.00
2019-02-17T07:17:22.668Z,50.62
2019-02-17T07:18:22.618Z,50.62
2019-02-17T07:19:22.661Z,50.62
2019-02-17T07:20:22.719Z,56.25
2019-02-17T07:21:22.592Z,56.25
2019-02-17T07:22:22.708Z,56.25
2019-02-17T07:23:22.585Z,61.88
2019-02-17T07:24:22.565Z,61.88
2019-02-17T07:25:29.822Z,61.88
2019-02-17T07:26:23.533Z,67.50
2019-02-17T07:27:22.732Z,67.50
2019-02-17T07:28:22.516Z,67.50
2019-02-17T07:29:22.686Z,67.50
2019-02-17T07:30:22.607Z,67.50
2019-02-17T07:31:22.759Z,73.12
2019-02-17T07:32:22.678Z,73.12
2019-02-17T07:33:22.478Z,73.12
2019-02-17T07:34:22.620Z,73.12
2019-02-17T07:35:22.449Z,73.12
2019-02-17T07:36:22.449Z,78.75
2019-02-17T07:37:32.718Z,78.75
2019-02-17T07:38:23.413Z,78.75
2019-02-17T07:39:22.544Z,78.75
2019-02-17T07:40:22.394Z,84.38
2019-02-17T07:41:22.385Z,84.38
2019-02-17T07:42:22.414Z,84.38
2019-02-17T07:43:22.464Z,84.38
2019-02-17T07:44:22.359Z,84.38
2019-02-17T07:45:22.384Z,90.00
2019-02-17T07:46:22.331Z,90.00
2019-02-17T07:47:22.346Z,90.00
2019-02-17T07:48:22.305Z,90.00
2019-02-17T07:49:22.401Z,90.00
2019-02-17T07:50:22.320Z,95.62
2019-02-17T07:51:22.417Z,95.62
2019-02-17T07:52:22.339Z,95.62
2019-02-17T07:53:22.245Z,95.62
2019-02-17T07:54:22.270Z,95.62
2019-02-17T07:55:22.351Z,95.62
2019-02-17T07:56:22.229Z,101.25
2019-02-17T07:57:22.320Z,101.25
2019-02-17T07:58:22.206Z,101.25
2019-02-17T07:59:22.249Z,101.25
2019-02-17T08:00:22.285Z,101.25
2019-02-17T08:01:22.166Z,101.25
2019-02-17T08:02:22.256Z,106.88
2019-02-17T08:03:22.168Z,106.88
2019-02-17T08:04:22.309Z,106.88
2019-02-17T08:05:22.219Z,106.88
2019-02-17T08:06:22.232Z,106.88
2019-02-17T08:07:22.187Z,112.50
2019-02-17T08:08:22.225Z,112.50
2019-02-17T08:09:22.107Z,112.50
2019-02-17T08:10:22.060Z,112.50
2019-02-17T08:11:22.086Z,112.50
2019-02-17T08:12:22.197Z,118.12
2019-02-17T08:13:22.046Z,118.12
2019-02-17T08:14:22.163Z,118.12
2019-02-17T08:15:22.015Z,118.12
2019-02-17T08:16:22.022Z,123.75
2019-02-17T08:17:22.013Z,123.75
2019-02-17T08:18:22.135Z,123.75
2019-02-17T08:19:21.985Z,123.75
2019-02-17T08:20:22.110Z,123.75
2019-02-17T08:21:21.947Z,123.75
2019-02-17T08:22:21.961Z,123.75
2019-02-17T08:23:21.994Z,123.75
2019-02-17T08:24:22.096Z,123.75
2019-02-17T08:25:22.315Z,129.38
2019-02-17T08:26:21.926Z,129.38
2019-02-17T08:27:21.917Z,129.38
2019-02-17T08:28:21.890Z,129.38
2019-02-17T08:29:22.003Z,129.38
2019-02-17T08:30:21.880Z,135.00
2019-02-17T08:31:22.045Z,135.00
2019-02-17T08:32:22.015Z,135.00
2019-02-17T08:33:23.368Z,135.00
2019-02-17T08:34:21.818Z,135.00
2019-02-17T08:35:23.937Z,135.00
2019-02-17T08:36:21.819Z,135.00
2019-02-17T08:37:22.933Z,135.00
2019-02-17T08:38:21.832Z,135.00
2019-02-17T08:39:21.766Z,135.00
2019-02-17T08:40:21.759Z,140.62
2019-02-17T08:41:21.856Z,140.62
2019-02-17T08:42:21.752Z,140.62
2019-02-17T08:43:21.917Z,146.25
2019-02-17T08:44:21.735Z,146.25
2019-02-17T08:45:21.715Z,146.25
2019-02-17T08:46:21.711Z,146.25
2019-02-17T08:47:21.839Z,146.25
2019-02-17T08:48:21.697Z,146.25
2019-02-17T08:49:23.841Z,146.25
2019-02-17T08:50:21.704Z,146.25
2019-02-17T08:51:21.666Z,146.25
2019-02-17T08:52:21.668Z,146.25
2019-02-17T08:53:22.761Z,146.25
2019-02-17T08:54:21.611Z,146.25
2019-02-17T08:55:21.728Z,146.25
2019-02-17T08:56:21.618Z,146.25
2019-02-17T08:57:21.575Z,146.25
2019-02-17T08:58:21.573Z,146.25
2019-02-17T08:59:21.642Z,146.25
2019-02-17T09:00:21.559Z,151.88
2019-02-17T09:01:21.717Z,151.88
2019-02-17T09:02:21.524Z,151.88
2019-02-17T09:03:21.516Z,151.88
2019-02-17T09:04:21.508Z,151.88
2019-02-17T09:05:21.578Z,151.88
2019-02-17T09:06:21.530Z,151.88
2019-02-17T09:07:21.607Z,157.50
2019-02-17T09:08:21.476Z,157.50
2019-02-17T09:09:21.622Z,157.50
2019-02-17T09:10:21.452Z,157.50
2019-02-17T09:11:21.517Z,157.50
2019-02-17T09:12:21.457Z,157.50
2019-02-17T09:13:21.523Z,157.50
2019-02-17T09:14:21.459Z,157.50
2019-02-17T09:15:21.389Z,157.50
2019-02-17T09:16:21.440Z,157.50
2019-02-17T09:17:21.507Z,157.50
2019-02-17T09:18:21.351Z,157.50
2019-02-17T09:19:21.484Z,151.88
2019-02-17T09:20:21.349Z,151.88
2019-02-17T09:21:21.407Z,151.88
2019-02-17T09:22:21.352Z,151.88
2019-02-17T09:23:21.385Z,151.88
2019-02-17T09:24:21.315Z,151.88
2019-02-17T09:25:21.416Z,151.88
2019-02-17T09:26:21.292Z,151.88
2019-02-17T09:27:21.300Z,151.88
2019-02-17T09:28:21.265Z,151.88
2019-02-17T09:29:21.333Z,157.50
2019-02-17T09:30:21.236Z,157.50
2019-02-17T09:31:21.438Z,157.50
2019-02-17T09:32:21.252Z,157.50
2019-02-17T09:33:21.199Z,157.50
2019-02-17T09:34:21.267Z,157.50
2019-02-17T09:35:21.267Z,157.50
2019-02-17T09:36:21.164Z,157.50
2019-02-17T09:37:21.359Z,157.50
2019-02-17T09:38:21.160Z,157.50
2019-02-17T09:39:21.151Z,157.50
2019-02-17T09:40:21.129Z,163.12
2019-02-17T09:41:21.217Z,163.12
2019-02-17T09:42:21.142Z,163.12
2019-02-17T09:43:21.215Z,163.12
2019-02-17T09:44:21.080Z,157.50
2019-02-17T09:45:21.082Z,163.12
2019-02-17T09:46:21.132Z,163.12
2019-02-17T09:47:21.074Z,163.12
2019-02-17T09:48:21.157Z,163.12
2019-02-17T09:49:21.100Z,163.12
2019-02-17T09:50:21.160Z,163.12
2019-02-17T09:51:21.004Z,163.12
2019-02-17T09:52:21.085Z,163.12
2019-02-17T09:53:21.038Z,163.12
2019-02-17T09:54:21.084Z,163.12
2019-02-17T09:55:21.008Z,163.12
2019-02-17T09:56:21.124Z,163.12
2019-02-17T09:57:21.110Z,163.12
2019-02-17T09:58:20.966Z,163.12
2019-02-17T09:59:21.020Z,163.12
2019-02-17T10:00:20.909Z,163.12
2019-02-17T10:01:21.032Z,163.12
2019-02-17T10:02:26.613Z,163.12
2019-02-17T10:03:21.914Z,163.12
2019-02-17T10:04:20.949Z,168.75
2019-02-17T10:05:20.873Z,168.75
2019-02-17T10:06:20.955Z,168.75
2019-02-17T10:07:20.835Z,168.75
2019-02-17T10:08:20.931Z,168.75
2019-02-17T10:09:20.837Z,168.75
2019-02-17T10:10:20.890Z,168.75
2019-02-17T10:11:20.817Z,168.75
2019-02-17T10:12:20.918Z,168.75
2019-02-17T10:13:20.818Z,168.75
2019-02-17T10:14:20.931Z,168.75
2019-02-17T10:15:20.780Z,168.75
2019-02-17T10:16:22.116Z,168.75
2019-02-17T10:17:20.735Z,168.75
2019-02-17T10:18:25.006Z,168.75
2019-02-17T10:19:20.740Z,168.75
2019-02-17T10:20:24.451Z,168.75
2019-02-17T10:21:20.708Z,168.75
2019-02-17T10:22:22.832Z,168.75
2019-02-17T10:23:20.708Z,163.12
2019-02-17T10:24:21.805Z,163.12
2019-02-17T10:25:20.667Z,163.12
2019-02-17T10:26:20.655Z,163.12
2019-02-17T10:27:20.648Z,163.12
2019-02-17T10:28:22.829Z,168.75
2019-02-17T10:29:20.620Z,174.38
2019-02-17T10:30:28.500Z,180.00
2019-02-17T10:31:20.589Z,180.00
2019-02-17T10:32:20.595Z,180.00
2019-02-17T10:33:20.606Z,180.00
2019-02-17T10:34:21.683Z,185.62
2019-02-17T10:35:20.560Z,185.62
2019-02-17T10:36:27.529Z,185.62
2019-02-17T10:37:20.541Z,185.62
2019-02-17T10:38:20.555Z,185.62
2019-02-17T10:39:20.517Z,185.62
2019-02-17T10:40:20.684Z,185.62
2019-02-17T10:41:20.507Z,185.62
2019-02-17T10:42:27.460Z,191.25
2019-02-17T10:43:20.518Z,191.25
2019-02-17T10:44:20.469Z,191.25
2019-02-17T10:45:20.466Z,191.25
2019-02-17T10:46:36.517Z,191.25
2019-02-17T10:47:20.443Z,196.88
2019-02-17T10:48:21.517Z,196.88
2019-02-17T10:49:20.431Z,196.88
2019-02-17T10:50:20.414Z,196.88
2019-02-17T10:51:20.382Z,202.50
2019-02-17T10:52:22.515Z,202.50
2019-02-17T10:53:20.404Z,202.50
2019-02-17T10:54:22.953Z,202.50
2019-02-17T10:55:20.354Z,202.50
2019-02-17T10:56:20.345Z,202.50
2019-02-17T10:57:20.389Z,202.50
2019-02-17T10:58:20.360Z,202.50
2019-02-17T10:59:21.428Z,202.50
2019-02-17T11:00:20.298Z,202.50
2019-02-17T11:01:20.427Z,202.50
2019-02-17T11:02:20.265Z,202.50
2019-02-17T11:03:31.068Z,202.50
2019-02-17T11:04:20.261Z,202.50
2019-02-17T11:05:20.349Z,202.50
2019-02-17T11:06:20.248Z,202.50
2019-02-17T11:07:20.259Z,202.50
2019-02-17T11:08:20.240Z,202.50
2019-02-17T11:09:20.293Z,202.50
2019-02-17T11:10:20.203Z,202.50
2019-02-17T11:11:20.287Z,202.50
2019-02-17T11:12:20.173Z,202.50
2019-02-17T11:13:20.277Z,202.50
2019-02-17T11:14:20.162Z,202.50
2019-02-17T11:15:20.228Z,202.50
2019-02-17T11:16:20.127Z,202.50
2019-02-17T11:17:20.236Z,202.50
2019-02-17T11:18:20.140Z,202.50
2019-02-17T11:19:20.258Z,202.50
2019-02-17T11:20:20.098Z,202.50
2019-02-17T11:21:20.165Z,202.50
2019-02-17T11:22:23.203Z,202.50
2019-02-17T11:23:20.175Z,202.50
2019-02-17T11:24:20.033Z,202.50
2019-02-17T11:25:20.043Z,202.50
2019-02-17T11:26:20.013Z,208.12
2019-02-17T11:27:20.152Z,208.12
2019-02-17T11:28:20.001Z,208.12
2019-02-17T11:29:20.015Z,213.75
2019-02-17T11:30:19.981Z,213.75
2019-02-17T11:31:19.972Z,219.38
2019-02-17T11:32:19.990Z,219.38
2019-02-17T11:33:20.029Z,219.38
2019-02-17T11:34:19.939Z,219.38
2019-02-17T11:35:20.053Z,219.38
2019-02-17T11:36:19.905Z,219.38
2019-02-17T11:37:19.934Z,219.38
2019-02-17T11:38:19.951Z,219.38
2019-02-17T11:39:19.888Z,219.38
2019-02-17T11:40:19.975Z,219.38
2019-02-17T11:41:19.846Z,219.38
2019-02-17T11:42:20.070Z,219.38
2019-02-17T11:43:19.853Z,219.38
2019-02-17T11:44:19.891Z,219.38
2019-02-17T11:45:19.814Z,225.00
2019-02-17T11:46:19.906Z,225.00
2019-02-17T11:47:19.833Z,219.38
2019-02-17T11:48:20.787Z,219.38
2019-02-17T11:49:19.774Z,225.00
2019-02-17T11:50:19.828Z,225.00
2019-02-17T11:51:19.753Z,225.00
2019-02-17T11:52:19.918Z,225.00
2019-02-17T11:53:19.745Z,225.00
2019-02-17T11:54:19.862Z,225.00
2019-02-17T11:55:19.706Z,225.00
2019-02-17T11:56:19.767Z,225.00
2019-02-17T11:57:19.724Z,230.62
2019-02-17T11:58:19.781Z,230.62
2019-02-17T11:59:19.668Z,230.62
2019-02-17T12:00:19.664Z,230.62
2019-02-17T12:01:19.641Z,230.62
2019-02-17T12:02:24.994Z,230.62
2019-02-17T12:03:20.618Z,230.62
2019-02-17T12:04:19.720Z,236.25
2019-02-17T12:05:19.616Z,230.62
2019-02-17T12:06:19.580Z,236.25
2019-02-17T12:07:19.607Z,236.25
2019-02-17T12:08:19.661Z,236.25
2019-02-17T12:09:19.572Z,236.25
2019-02-17T12:10:19.674Z,236.25
2019-02-17T12:11:19.538Z,236.25
2019-02-17T12:12:19.554Z,230.62
2019-02-17T12:13:19.521Z,230.62
2019-02-17T12:14:19.600Z,230.62
2019-02-17T12:15:19.521Z,230.62
2019-02-17T12:16:19.598Z,230.62
2019-02-17T12:17:19.523Z,230.62
2019-02-17T12:18:19.468Z,236.25
2019-02-17T12:19:19.526Z,236.25
2019-02-17T12:20:19.435Z,230.62
2019-02-17T12:21:19.542Z,230.62
2019-02-17T12:22:19.462Z,230.62
2019-02-17T12:23:19.540Z,230.62
2019-02-17T12:24:19.397Z,230.62
2019-02-17T12:25:19.452Z,230.62
2019-02-17T12:26:19.379Z,236.25
2019-02-17T12:27:19.517Z,236.25
2019-02-17T12:28:19.358Z,236.25
2019-02-17T12:29:19.481Z,236.25
2019-02-17T12:30:19.331Z,236.25
2019-02-17T12:31:19.389Z,241.88
2019-02-17T12:32:19.341Z,241.88
2019-02-17T12:33:21.641Z,247.50
2019-02-17T12:34:19.312Z,247.50
2019-02-17T12:35:19.300Z,241.88
2019-02-17T12:36:19.268Z,241.88
2019-02-17T12:37:19.404Z,247.50
2019-02-17T12:38:19.258Z,247.50
2019-02-17T12:39:19.357Z,253.12
2019-02-17T12:40:19.245Z,253.12
2019-02-17T12:41:19.236Z,253.12
2019-02-17T12:42:19.241Z,253.12
2019-02-17T12:43:19.265Z,253.12
2019-02-17T12:44:19.192Z,253.12
2019-02-17T12:45:19.277Z,253.12
2019-02-17T12:46:19.168Z,253.12
2019-02-17T12:47:19.190Z,253.12
2019-02-17T12:48:19.145Z,253.12
2019-02-17T12:49:19.212Z,253.12
2019-02-17T12:50:19.124Z,253.12
2019-02-17T12:51:19.214Z,253.12
2019-02-17T12:52:19.156Z,253.12
2019-02-17T12:53:19.097Z,253.12
2019-02-17T12:54:28.677Z,247.50
2019-02-17T12:55:20.089Z,247.50
2019-02-17T12:56:19.166Z,247.50